Fairplay, Maryland
Current Conditions -  °F | °C
As of 10:53 AM on Wednesday 28 Jan 2015 (Local Time) from KHGR Reporting Station
Clear Clear  
Wind Chill: 12°   Ceiling: Unl
Heat Index: 25°   Visibility: 10mi
Dew Point:   Wind: 17mph
Humidity: 43%   Direction: 320°NW
Pressure: 30.24"   Gusts: NA
Location:  39.54°N, 77.75°W
Report Text: KHGR 281553Z 32015KT 10SM CLR M04/M15 A3024 RMK AO2 SLP260 T10391150
Loading
Personal Weather Stations






























Interactive Weather Map New forecast layout! Learn more

10-Day Weather Forecast

Advertisements
Track Severe Weather on mobile